sensor_id;sensor_type;location;lat;lon;timestamp;P1;durP1;ratioP1;P2;durP2;ratioP2
21432;SDS011;18592;49.708;10.900;2023-06-26T00:01:54;6.28;;;5.68;;
21432;SDS011;18592;49.708;10.900;2023-06-26T00:03:54;6.20;;;5.60;;
21432;SDS011;18592;49.708;10.900;2023-06-26T00:05:55;6.20;;;5.40;;
21432;SDS011;18592;49.708;10.900;2023-06-26T00:08:00;6.38;;;5.68;;
21432;SDS011;18592;49.708;10.900;2023-06-26T00:10:01;6.43;;;5.70;;
21432;SDS011;18592;49.708;10.900;2023-06-26T00:12:03;5.35;;;4.85;;
21432;SDS011;18592;49.708;10.900;2023-06-26T00:14:03;7.20;;;5.55;;
21432;SDS011;18592;49.708;10.900;2023-06-26T00:16:04;6.35;;;5.47;;
21432;SDS011;18592;49.708;10.900;2023-06-26T00:18:14;6.05;;;5.47;;
21432;SDS011;18592;49.708;10.900;2023-06-26T00:20:15;5.80;;;5.30;;
21432;SDS011;18592;49.708;10.900;2023-06-26T00:22:16;6.30;;;5.70;;
21432;SDS011;18592;49.708;10.900;2023-06-26T00:24:20;6.43;;;5.82;;
21432;SDS011;18592;49.708;10.900;2023-06-26T00:26:27;6.57;;;5.97;;
21432;SDS011;18592;49.708;10.900;2023-06-26T00:28:43;6.63;;;5.45;;
21432;SDS011;18592;49.708;10.900;2023-06-26T00:30:43;6.25;;;5.63;;
21432;SDS011;18592;49.708;10.900;2023-06-26T00:32:43;6.05;;;5.45;;
21432;SDS011;18592;49.708;10.900;2023-06-26T00:34:53;6.50;;;5.90;;
21432;SDS011;18592;49.708;10.900;2023-06-26T00:36:53;5.43;;;4.95;;
21432;SDS011;18592;49.708;10.900;2023-06-26T00:38:54;6.13;;;5.53;;
21432;SDS011;18592;49.708;10.900;2023-06-26T00:40:54;5.90;;;5.18;;
21432;SDS011;18592;49.708;10.900;2023-06-26T00:42:56;6.75;;;5.63;;
21432;SDS011;18592;49.708;10.900;2023-06-26T00:45:06;5.53;;;5.03;;
21432;SDS011;18592;49.708;10.900;2023-06-26T00:47:15;6.03;;;5.43;;
21432;SDS011;18592;49.708;10.900;2023-06-26T00:49:16;6.10;;;5.50;;
21432;SDS011;18592;49.708;10.900;2023-06-26T00:51:17;6.30;;;5.35;;
21432;SDS011;18592;49.708;10.900;2023-06-26T00:53:18;5.78;;;5.28;;
21432;SDS011;18592;49.708;10.900;2023-06-26T00:55:18;6.45;;;5.85;;
21432;SDS011;18592;49.708;10.900;2023-06-26T00:57:19;6.05;;;5.43;;
21432;SDS011;18592;49.708;10.900;2023-06-26T00:59:19;5.68;;;5.18;;
21432;SDS011;18592;49.708;10.900;2023-06-26T01:01:21;6.25;;;5.65;;
21432;SDS011;18592;49.708;10.900;2023-06-26T01:03:27;5.90;;;5.40;;
21432;SDS011;18592;49.708;10.900;2023-06-26T01:05:33;6.50;;;5.53;;
21432;SDS011;18592;49.708;10.900;2023-06-26T01:07:34;6.18;;;5.57;;
21432;SDS011;18592;49.708;10.900;2023-06-26T01:09:36;5.30;;;4.80;;
21432;SDS011;18592;49.708;10.900;2023-06-26T01:11:43;6.35;;;5.75;;
21432;SDS011;18592;49.708;10.900;2023-06-26T01:13:44;6.22;;;5.60;;
21432;SDS011;18592;49.708;10.900;2023-06-26T01:15:45;7.97;;;5.47;;
21432;SDS011;18592;49.708;10.900;2023-06-26T01:17:48;6.50;;;5.78;;
21432;SDS011;18592;49.708;10.900;2023-06-26T01:19:50;6.35;;;5.75;;
21432;SDS011;18592;49.708;10.900;2023-06-26T01:22:00;6.53;;;5.72;;
21432;SDS011;18592;49.708;10.900;2023-06-26T01:24:17;7.78;;;6.50;;
21432;SDS011;18592;49.708;10.900;2023-06-26T01:26:28;7.32;;;6.63;;
21432;SDS011;18592;49.708;10.900;2023-06-26T01:28:35;7.30;;;6.60;;
21432;SDS011;18592;49.708;10.900;2023-06-26T01:30:41;7.40;;;6.55;;
21432;SDS011;18592;49.708;10.900;2023-06-26T01:32:43;6.72;;;6.03;;
21432;SDS011;18592;49.708;10.900;2023-06-26T01:34:45;6.65;;;5.90;;
21432;SDS011;18592;49.708;10.900;2023-06-26T01:36:45;6.30;;;5.68;;
21432;SDS011;18592;49.708;10.900;2023-06-26T01:38:46;7.72;;;5.60;;
21432;SDS011;18592;49.708;10.900;2023-06-26T01:40:46;6.43;;;5.60;;
21432;SDS011;18592;49.708;10.900;2023-06-26T01:43:00;7.55;;;5.57;;
21432;SDS011;18592;49.708;10.900;2023-06-26T01:45:03;6.03;;;5.53;;
21432;SDS011;18592;49.708;10.900;2023-06-26T01:47:27;6.10;;;5.57;;
21432;SDS011;18592;49.708;10.900;2023-06-26T01:49:47;7.32;;;6.00;;
21432;SDS011;18592;49.708;10.900;2023-06-26T01:51:55;6.43;;;5.78;;
21432;SDS011;18592;49.708;10.900;2023-06-26T01:54:01;6.28;;;5.53;;
21432;SDS011;18592;49.708;10.900;2023-06-26T01:56:14;6.28;;;5.68;;
21432;SDS011;18592;49.708;10.900;2023-06-26T01:58:19;6.30;;;5.45;;
21432;SDS011;18592;49.708;10.900;2023-06-26T02:00:37;7.25;;;5.57;;
21432;SDS011;18592;49.708;10.900;2023-06-26T02:02:46;5.80;;;5.30;;
21432;SDS011;18592;49.708;10.900;2023-06-26T02:04:47;5.95;;;5.40;;
21432;SDS011;18592;49.708;10.900;2023-06-26T02:06:48;6.80;;;6.00;;
21432;SDS011;18592;49.708;10.900;2023-06-26T02:08:48;5.63;;;5.13;;
21432;SDS011;18592;49.708;10.900;2023-06-26T02:10:49;6.45;;;5.85;;
21432;SDS011;18592;49.708;10.900;2023-06-26T02:12:50;7.22;;;5.32;;
21432;SDS011;18592;49.708;10.900;2023-06-26T02:14:50;6.38;;;5.78;;
21432;SDS011;18592;49.708;10.900;2023-06-26T02:16:57;6.38;;;5.72;;
21432;SDS011;18592;49.708;10.900;2023-06-26T02:19:00;6.20;;;5.45;;
21432;SDS011;18592;49.708;10.900;2023-06-26T02:21:00;5.97;;;5.47;;
21432;SDS011;18592;49.708;10.900;2023-06-26T02:23:03;6.22;;;5.63;;
21432;SDS011;18592;49.708;10.900;2023-06-26T02:25:12;6.65;;;5.97;;
21432;SDS011;18592;49.708;10.900;2023-06-26T02:27:13;7.13;;;6.07;;
21432;SDS011;18592;49.708;10.900;2023-06-26T02:29:13;6.85;;;6.15;;
21432;SDS011;18592;49.708;10.900;2023-06-26T02:31:14;7.90;;;6.68;;
21432;SDS011;18592;49.708;10.900;2023-06-26T02:33:14;6.35;;;5.75;;
21432;SDS011;18592;49.708;10.900;2023-06-26T02:35:14;7.47;;;6.72;;
21432;SDS011;18592;49.708;10.900;2023-06-26T02:37:18;6.95;;;6.22;;
21432;SDS011;18592;49.708;10.900;2023-06-26T02:39:20;6.88;;;6.18;;
21432;SDS011;18592;49.708;10.900;2023-06-26T02:41:22;6.93;;;6.22;;
21432;SDS011;18592;49.708;10.900;2023-06-26T02:43:28;7.45;;;6.65;;
21432;SDS011;18592;49.708;10.900;2023-06-26T02:45:30;6.65;;;6.05;;
21432;SDS011;18592;49.708;10.900;2023-06-26T02:47:46;7.00;;;6.22;;
21432;SDS011;18592;49.708;10.900;2023-06-26T02:49:46;8.88;;;6.43;;
21432;SDS011;18592;49.708;10.900;2023-06-26T02:51:46;7.03;;;6.32;;
21432;SDS011;18592;49.708;10.900;2023-06-26T02:53:58;6.57;;;5.88;;
21432;SDS011;18592;49.708;10.900;2023-06-26T02:56:06;6.63;;;5.85;;
21432;SDS011;18592;49.708;10.900;2023-06-26T02:58:19;6.50;;;5.90;;
21432;SDS011;18592;49.708;10.900;2023-06-26T03:00:19;8.10;;;5.85;;
21432;SDS011;18592;49.708;10.900;2023-06-26T03:02:23;7.18;;;6.03;;
21432;SDS011;18592;49.708;10.900;2023-06-26T03:04:30;7.00;;;6.30;;
21432;SDS011;18592;49.708;10.900;2023-06-26T03:06:30;6.40;;;5.72;;
21432;SDS011;18592;49.708;10.900;2023-06-26T03:08:30;6.30;;;5.50;;
21432;SDS011;18592;49.708;10.900;2023-06-26T03:10:32;6.28;;;5.68;;
21432;SDS011;18592;49.708;10.900;2023-06-26T03:12:33;6.80;;;6.10;;
21432;SDS011;18592;49.708;10.900;2023-06-26T03:14:34;6.30;;;5.70;;
21432;SDS011;18592;49.708;10.900;2023-06-26T03:16:34;6.47;;;5.75;;
21432;SDS011;18592;49.708;10.900;2023-06-26T03:18:35;7.10;;;6.40;;
21432;SDS011;18592;49.708;10.900;2023-06-26T03:20:38;5.90;;;5.40;;
21432;SDS011;18592;49.708;10.900;2023-06-26T03:22:38;6.68;;;6.00;;
21432;SDS011;18592;49.708;10.900;2023-06-26T03:24:40;7.47;;;6.00;;
21432;SDS011;18592;49.708;10.900;2023-06-26T03:26:53;6.85;;;6.15;;
21432;SDS011;18592;49.708;10.900;2023-06-26T03:28:54;7.32;;;6.28;;
21432;SDS011;18592;49.708;10.900;2023-06-26T03:30:55;6.78;;;6.05;;
21432;SDS011;18592;49.708;10.900;2023-06-26T03:32:55;8.80;;;6.47;;
21432;SDS011;18592;49.708;10.900;2023-06-26T03:35:01;8.25;;;6.00;;
21432;SDS011;18592;49.708;10.900;2023-06-26T03:37:04;6.70;;;6.00;;
21432;SDS011;18592;49.708;10.900;2023-06-26T03:39:14;7.78;;;6.35;;
21432;SDS011;18592;49.708;10.900;2023-06-26T03:41:15;8.77;;;6.20;;
21432;SDS011;18592;49.708;10.900;2023-06-26T03:43:15;7.65;;;6.20;;
21432;SDS011;18592;49.708;10.900;2023-06-26T03:45:33;6.75;;;6.00;;
21432;SDS011;18592;49.708;10.900;2023-06-26T03:47:43;7.60;;;6.78;;
21432;SDS011;18592;49.708;10.900;2023-06-26T03:49:43;6.90;;;6.20;;
21432;SDS011;18592;49.708;10.900;2023-06-26T03:51:44;7.38;;;6.13;;
21432;SDS011;18592;49.708;10.900;2023-06-26T03:53:55;6.30;;;5.70;;
21432;SDS011;18592;49.708;10.900;2023-06-26T03:55:56;7.68;;;5.97;;
21432;SDS011;18592;49.708;10.900;2023-06-26T03:57:57;9.48;;;6.10;;
21432;SDS011;18592;49.708;10.900;2023-06-26T03:59:57;6.15;;;5.53;;
21432;SDS011;18592;49.708;10.900;2023-06-26T04:01:59;6.28;;;5.68;;
21432;SDS011;18592;49.708;10.900;2023-06-26T04:04:00;7.35;;;6.15;;
21432;SDS011;18592;49.708;10.900;2023-06-26T04:06:00;5.53;;;5.00;;
21432;SDS011;18592;49.708;10.900;2023-06-26T04:08:00;9.27;;;6.80;;
21432;SDS011;18592;49.708;10.900;2023-06-26T04:10:08;6.65;;;5.95;;
21432;SDS011;18592;49.708;10.900;2023-06-26T04:12:13;8.25;;;6.40;;
21432;SDS011;18592;49.708;10.900;2023-06-26T04:14:13;7.70;;;6.90;;
21432;SDS011;18592;49.708;10.900;2023-06-26T04:16:14;7.68;;;6.00;;
21432;SDS011;18592;49.708;10.900;2023-06-26T04:18:15;6.80;;;6.10;;
21432;SDS011;18592;49.708;10.900;2023-06-26T04:20:16;7.63;;;6.45;;
21432;SDS011;18592;49.708;10.900;2023-06-26T04:22:16;7.90;;;6.18;;
21432;SDS011;18592;49.708;10.900;2023-06-26T04:24:16;7.75;;;6.35;;
21432;SDS011;18592;49.708;10.900;2023-06-26T04:26:17;7.97;;;6.43;;
21432;SDS011;18592;49.708;10.900;2023-06-26T04:28:17;6.40;;;5.80;;
21432;SDS011;18592;49.708;10.900;2023-06-26T04:30:27;6.60;;;5.90;;
21432;SDS011;18592;49.708;10.900;2023-06-26T04:32:27;6.50;;;5.80;;
21432;SDS011;18592;49.708;10.900;2023-06-26T04:34:28;7.07;;;6.38;;
21432;SDS011;18592;49.708;10.900;2023-06-26T04:36:28;7.00;;;5.85;;
21432;SDS011;18592;49.708;10.900;2023-06-26T04:38:28;6.57;;;5.88;;
21432;SDS011;18592;49.708;10.900;2023-06-26T04:40:45;6.57;;;5.97;;
21432;SDS011;18592;49.708;10.900;2023-06-26T04:42:45;6.60;;;5.90;;
21432;SDS011;18592;49.708;10.900;2023-06-26T04:44:45;7.45;;;6.50;;
21432;SDS011;18592;49.708;10.900;2023-06-26T04:46:47;7.63;;;6.15;;
21432;SDS011;18592;49.708;10.900;2023-06-26T04:48:53;6.75;;;6.15;;
21432;SDS011;18592;49.708;10.900;2023-06-26T04:50:54;7.10;;;5.90;;
21432;SDS011;18592;49.708;10.900;2023-06-26T04:52:56;7.38;;;6.53;;
21432;SDS011;18592;49.708;10.900;2023-06-26T04:54:56;6.85;;;6.13;;
21432;SDS011;18592;49.708;10.900;2023-06-26T04:56:56;7.10;;;6.40;;
21432;SDS011;18592;49.708;10.900;2023-06-26T04:59:31;6.80;;;5.97;;
21432;SDS011;18592;49.708;10.900;2023-06-26T05:01:46;6.63;;;5.93;;
21432;SDS011;18592;49.708;10.900;2023-06-26T05:04:03;6.72;;;5.88;;
21432;SDS011;18592;49.708;10.900;2023-06-26T05:06:13;7.50;;;6.40;;
21432;SDS011;18592;49.708;10.900;2023-06-26T05:08:29;8.70;;;6.05;;
21432;SDS011;18592;49.708;10.900;2023-06-26T05:10:33;6.50;;;5.90;;
21432;SDS011;18592;49.708;10.900;2023-06-26T05:12:42;6.90;;;6.20;;
21432;SDS011;18592;49.708;10.900;2023-06-26T05:14:51;6.20;;;5.60;;
21432;SDS011;18592;49.708;10.900;2023-06-26T05:16:54;6.65;;;6.00;;
21432;SDS011;18592;49.708;10.900;2023-06-26T05:19:08;6.93;;;6.18;;
21432;SDS011;18592;49.708;10.900;2023-06-26T05:21:17;7.25;;;6.53;;
21432;SDS011;18592;49.708;10.900;2023-06-26T05:23:33;7.03;;;5.85;;
21432;SDS011;18592;49.708;10.900;2023-06-26T05:25:35;7.38;;;6.30;;
21432;SDS011;18592;49.708;10.900;2023-06-26T05:27:52;7.70;;;6.45;;
21432;SDS011;18592;49.708;10.900;2023-06-26T05:29:54;6.85;;;5.90;;
21432;SDS011;18592;49.708;10.900;2023-06-26T05:32:05;6.95;;;6.25;;
21432;SDS011;18592;49.708;10.900;2023-06-26T05:34:07;7.65;;;6.03;;
21432;SDS011;18592;49.708;10.900;2023-06-26T05:36:11;8.10;;;6.07;;
21432;SDS011;18592;49.708;10.900;2023-06-26T05:38:14;7.20;;;6.50;;
21432;SDS011;18592;49.708;10.900;2023-06-26T05:40:21;7.05;;;6.35;;
21432;SDS011;18592;49.708;10.900;2023-06-26T05:42:37;6.97;;;6.28;;
21432;SDS011;18592;49.708;10.900;2023-06-26T05:44:40;6.40;;;5.72;;
21432;SDS011;18592;49.708;10.900;2023-06-26T05:46:42;7.15;;;6.13;;
21432;SDS011;18592;49.708;10.900;2023-06-26T05:49:01;7.00;;;6.30;;
21432;SDS011;18592;49.708;10.900;2023-06-26T05:51:07;8.05;;;6.30;;
21432;SDS011;18592;49.708;10.900;2023-06-26T05:53:16;7.05;;;6.35;;
21432;SDS011;18592;49.708;10.900;2023-06-26T05:55:18;6.88;;;6.18;;
21432;SDS011;18592;49.708;10.900;2023-06-26T05:57:24;6.75;;;5.95;;
21432;SDS011;18592;49.708;10.900;2023-06-26T05:59:26;8.75;;;7.85;;
21432;SDS011;18592;49.708;10.900;2023-06-26T06:12:20;7.72;;;6.50;;
21432;SDS011;18592;49.708;10.900;2023-06-26T06:14:26;6.55;;;5.80;;
21432;SDS011;18592;49.708;10.900;2023-06-26T06:16:26;7.82;;;6.28;;
21432;SDS011;18592;49.708;10.900;2023-06-26T06:18:44;7.20;;;6.50;;
21432;SDS011;18592;49.708;10.900;2023-06-26T06:20:44;6.90;;;6.20;;
21432;SDS011;18592;49.708;10.900;2023-06-26T06:22:45;6.65;;;6.05;;
21432;SDS011;18592;49.708;10.900;2023-06-26T06:24:45;6.97;;;6.28;;
21432;SDS011;18592;49.708;10.900;2023-06-26T06:26:46;6.85;;;6.15;;
21432;SDS011;18592;49.708;10.900;2023-06-26T06:28:46;6.60;;;6.00;;
21432;SDS011;18592;49.708;10.900;2023-06-26T06:30:47;6.97;;;6.18;;
21432;SDS011;18592;49.708;10.900;2023-06-26T06:32:47;8.32;;;7.03;;
21432;SDS011;18592;49.708;10.900;2023-06-26T06:34:50;7.20;;;6.47;;
21432;SDS011;18592;49.708;10.900;2023-06-26T06:36:50;6.55;;;5.93;;
21432;SDS011;18592;49.708;10.900;2023-06-26T06:38:51;6.85;;;6.00;;
21432;SDS011;18592;49.708;10.900;2023-06-26T06:40:51;8.05;;;6.63;;
21432;SDS011;18592;49.708;10.900;2023-06-26T06:42:51;6.82;;;6.22;;
21432;SDS011;18592;49.708;10.900;2023-06-26T06:44:52;5.75;;;5.22;;
21432;SDS011;18592;49.708;10.900;2023-06-26T06:46:52;7.00;;;6.30;;
21432;SDS011;18592;49.708;10.900;2023-06-26T06:48:53;6.65;;;5.95;;
21432;SDS011;18592;49.708;10.900;2023-06-26T06:50:54;6.68;;;6.07;;
21432;SDS011;18592;49.708;10.900;2023-06-26T07:03:47;7.10;;;6.28;;
21432;SDS011;18592;49.708;10.900;2023-06-26T07:05:48;7.05;;;6.38;;
21432;SDS011;18592;49.708;10.900;2023-06-26T07:18:31;11.13;;;10.02;;
21432;SDS011;18592;49.708;10.900;2023-06-26T07:20:34;10.10;;;9.15;;
21432;SDS011;18592;49.708;10.900;2023-06-26T07:22:38;9.48;;;8.60;;
21432;SDS011;18592;49.708;10.900;2023-06-26T07:24:39;8.95;;;8.10;;
21432;SDS011;18592;49.708;10.900;2023-06-26T07:26:39;8.63;;;7.80;;
21432;SDS011;18592;49.708;10.900;2023-06-26T07:28:40;8.45;;;7.30;;
21432;SDS011;18592;49.708;10.900;2023-06-26T07:30:40;7.22;;;6.53;;
21432;SDS011;18592;49.708;10.900;2023-06-26T07:32:48;8.40;;;6.93;;
21432;SDS011;18592;49.708;10.900;2023-06-26T07:34:49;7.30;;;6.60;;
21432;SDS011;18592;49.708;10.900;2023-06-26T07:36:53;7.20;;;6.50;;
21432;SDS011;18592;49.708;10.900;2023-06-26T07:38:54;7.28;;;6.25;;
21432;SDS011;18592;49.708;10.900;2023-06-26T07:40:54;7.00;;;6.32;;
21432;SDS011;18592;49.708;10.900;2023-06-26T07:42:54;7.70;;;6.78;;
21432;SDS011;18592;49.708;10.900;2023-06-26T07:44:55;7.13;;;6.53;;
21432;SDS011;18592;49.708;10.900;2023-06-26T07:46:55;6.60;;;6.00;;
21432;SDS011;18592;49.708;10.900;2023-06-26T07:48:56;8.88;;;6.63;;
21432;SDS011;18592;49.708;10.900;2023-06-26T07:50:56;6.75;;;6.15;;
21432;SDS011;18592;49.708;10.900;2023-06-26T07:52:56;7.63;;;6.50;;
21432;SDS011;18592;49.708;10.900;2023-06-26T07:54:57;6.95;;;6.35;;
21432;SDS011;18592;49.708;10.900;2023-06-26T07:56:58;7.85;;;6.68;;
21432;SDS011;18592;49.708;10.900;2023-06-26T07:59:00;7.78;;;7.00;;
21432;SDS011;18592;49.708;10.900;2023-06-26T08:01:16;7.18;;;6.47;;
21432;SDS011;18592;49.708;10.900;2023-06-26T08:03:16;7.15;;;6.45;;
21432;SDS011;18592;49.708;10.900;2023-06-26T08:05:17;6.97;;;6.32;;
21432;SDS011;18592;49.708;10.900;2023-06-26T08:07:17;7.50;;;6.80;;
21432;SDS011;18592;49.708;10.900;2023-06-26T08:09:19;8.25;;;6.70;;
21432;SDS011;18592;49.708;10.900;2023-06-26T08:11:21;9.23;;;8.20;;
21432;SDS011;18592;49.708;10.900;2023-06-26T08:13:21;8.77;;;7.88;;
21432;SDS011;18592;49.708;10.900;2023-06-26T08:15:21;10.88;;;9.00;;
21432;SDS011;18592;49.708;10.900;2023-06-26T08:17:22;13.63;;;9.80;;
21432;SDS011;18592;49.708;10.900;2023-06-26T08:19:24;11.63;;;9.48;;
21432;SDS011;18592;49.708;10.900;2023-06-26T08:21:24;11.27;;;9.73;;
21432;SDS011;18592;49.708;10.900;2023-06-26T08:23:24;12.68;;;10.40;;
21432;SDS011;18592;49.708;10.900;2023-06-26T08:25:25;11.10;;;9.85;;
21432;SDS011;18592;49.708;10.900;2023-06-26T08:27:25;13.65;;;10.68;;
21432;SDS011;18592;49.708;10.900;2023-06-26T08:29:26;11.85;;;9.65;;
21432;SDS011;18592;49.708;10.900;2023-06-26T08:31:26;11.45;;;8.90;;
21432;SDS011;18592;49.708;10.900;2023-06-26T08:33:26;11.60;;;9.85;;
21432;SDS011;18592;49.708;10.900;2023-06-26T08:35:28;11.10;;;9.13;;
21432;SDS011;18592;49.708;10.900;2023-06-26T08:37:28;11.73;;;9.63;;
21432;SDS011;18592;49.708;10.900;2023-06-26T08:39:29;9.90;;;8.90;;
21432;SDS011;18592;49.708;10.900;2023-06-26T08:41:29;10.15;;;8.63;;
21432;SDS011;18592;49.708;10.900;2023-06-26T08:43:29;10.20;;;9.15;;
21432;SDS011;18592;49.708;10.900;2023-06-26T08:45:30;9.15;;;8.23;;
21432;SDS011;18592;49.708;10.900;2023-06-26T08:47:30;11.50;;;8.77;;
21432;SDS011;18592;49.708;10.900;2023-06-26T08:49:37;10.27;;;9.23;;
21432;SDS011;18592;49.708;10.900;2023-06-26T08:51:50;9.98;;;7.72;;
21432;SDS011;18592;49.708;10.900;2023-06-26T08:53:58;8.63;;;7.72;;
21432;SDS011;18592;49.708;10.900;2023-06-26T08:56:00;8.80;;;7.90;;
21432;SDS011;18592;49.708;10.900;2023-06-26T08:58:02;8.07;;;7.25;;
21432;SDS011;18592;49.708;10.900;2023-06-26T09:00:02;8.80;;;7.90;;
21432;SDS011;18592;49.708;10.900;2023-06-26T09:02:04;8.20;;;7.40;;
21432;SDS011;18592;49.708;10.900;2023-06-26T09:04:20;9.05;;;8.15;;
21432;SDS011;18592;49.708;10.900;2023-06-26T09:06:31;9.95;;;8.40;;
21432;SDS011;18592;49.708;10.900;2023-06-26T09:08:43;10.38;;;8.75;;
21432;SDS011;18592;49.708;10.900;2023-06-26T09:10:53;9.88;;;8.05;;
21432;SDS011;18592;49.708;10.900;2023-06-26T09:13:02;10.35;;;8.88;;
21432;SDS011;18592;49.708;10.900;2023-06-26T09:15:13;10.57;;;8.90;;
21432;SDS011;18592;49.708;10.900;2023-06-26T09:17:15;10.40;;;9.02;;
21432;SDS011;18592;49.708;10.900;2023-06-26T09:19:15;8.98;;;8.07;;
21432;SDS011;18592;49.708;10.900;2023-06-26T09:21:31;9.50;;;8.43;;
21432;SDS011;18592;49.708;10.900;2023-06-26T09:23:39;9.13;;;8.23;;
21432;SDS011;18592;49.708;10.900;2023-06-26T09:25:56;9.25;;;7.90;;
21432;SDS011;18592;49.708;10.900;2023-06-26T09:28:06;7.85;;;7.05;;
21432;SDS011;18592;49.708;10.900;2023-06-26T09:30:23;9.05;;;7.63;;
21432;SDS011;18592;49.708;10.900;2023-06-26T09:32:26;7.38;;;6.68;;
21432;SDS011;18592;49.708;10.900;2023-06-26T09:34:37;7.90;;;7.10;;
21432;SDS011;18592;49.708;10.900;2023-06-26T09:36:42;7.30;;;6.60;;
21432;SDS011;18592;49.708;10.900;2023-06-26T09:39:05;7.50;;;6.78;;
21432;SDS011;18592;49.708;10.900;2023-06-26T09:41:18;7.25;;;6.57;;
21432;SDS011;18592;49.708;10.900;2023-06-26T09:43:33;7.28;;;6.57;;
21432;SDS011;18592;49.708;10.900;2023-06-26T09:45:49;7.35;;;6.70;;
21432;SDS011;18592;49.708;10.900;2023-06-26T09:48:03;7.57;;;6.70;;
21432;SDS011;18592;49.708;10.900;2023-06-26T09:50:03;7.55;;;6.85;;
21432;SDS011;18592;49.708;10.900;2023-06-26T09:52:21;7.05;;;6.43;;
21432;SDS011;18592;49.708;10.900;2023-06-26T09:54:26;6.75;;;6.15;;
21432;SDS011;18592;49.708;10.900;2023-06-26T09:56:44;7.15;;;6.40;;
21432;SDS011;18592;49.708;10.900;2023-06-26T09:58:57;6.70;;;6.10;;
21432;SDS011;18592;49.708;10.900;2023-06-26T10:01:13;7.18;;;6.47;;
21432;SDS011;18592;49.708;10.900;2023-06-26T10:03:26;7.25;;;6.55;;
21432;SDS011;18592;49.708;10.900;2023-06-26T10:05:35;6.97;;;6.38;;
21432;SDS011;18592;49.708;10.900;2023-06-26T10:07:50;6.70;;;6.10;;
21432;SDS011;18592;49.708;10.900;2023-06-26T10:10:07;6.70;;;6.10;;
21432;SDS011;18592;49.708;10.900;2023-06-26T10:12:17;6.72;;;6.13;;
21432;SDS011;18592;49.708;10.900;2023-06-26T10:14:35;7.18;;;6.47;;
21432;SDS011;18592;49.708;10.900;2023-06-26T10:16:37;7.35;;;6.65;;
21432;SDS011;18592;49.708;10.900;2023-06-26T10:18:41;7.07;;;6.38;;
21432;SDS011;18592;49.708;10.900;2023-06-26T10:20:45;7.28;;;6.68;;
21432;SDS011;18592;49.708;10.900;2023-06-26T10:23:03;7.10;;;6.50;;
21432;SDS011;18592;49.708;10.900;2023-06-26T10:25:18;7.88;;;7.18;;
21432;SDS011;18592;49.708;10.900;2023-06-26T10:27:20;7.55;;;6.78;;
21432;SDS011;18592;49.708;10.900;2023-06-26T10:29:30;6.97;;;6.28;;
21432;SDS011;18592;49.708;10.900;2023-06-26T10:31:37;7.25;;;6.55;;
21432;SDS011;18592;49.708;10.900;2023-06-26T10:33:54;7.55;;;6.85;;
21432;SDS011;18592;49.708;10.900;2023-06-26T10:36:15;7.38;;;6.65;;
21432;SDS011;18592;49.708;10.900;2023-06-26T10:38:24;7.95;;;7.15;;
21432;SDS011;18592;49.708;10.900;2023-06-26T10:40:55;7.53;;;6.82;;
21432;SDS011;18592;49.708;10.900;2023-06-26T10:43:11;7.47;;;6.78;;
21432;SDS011;18592;49.708;10.900;2023-06-26T10:45:20;9.00;;;8.10;;
21432;SDS011;18592;49.708;10.900;2023-06-26T10:47:30;8.35;;;7.50;;
21432;SDS011;18592;49.708;10.900;2023-06-26T10:49:40;9.38;;;7.75;;
21432;SDS011;18592;49.708;10.900;2023-06-26T10:52:13;9.05;;;8.02;;
21432;SDS011;18592;49.708;10.900;2023-06-26T10:54:30;8.13;;;7.32;;
21432;SDS011;18592;49.708;10.900;2023-06-26T10:56:42;8.88;;;7.13;;
21432;SDS011;18592;49.708;10.900;2023-06-26T10:58:52;8.80;;;7.43;;
21432;SDS011;18592;49.708;10.900;2023-06-26T11:01:25;9.10;;;7.97;;
21432;SDS011;18592;49.708;10.900;2023-06-26T11:03:29;8.27;;;7.47;;
21432;SDS011;18592;49.708;10.900;2023-06-26T11:05:46;7.53;;;6.82;;
21432;SDS011;18592;49.708;10.900;2023-06-26T11:08:10;7.57;;;6.88;;
21432;SDS011;18592;49.708;10.900;2023-06-26T11:10:13;7.80;;;7.00;;
21432;SDS011;18592;49.708;10.900;2023-06-26T11:12:33;8.10;;;7.30;;
21432;SDS011;18592;49.708;10.900;2023-06-26T11:14:34;7.60;;;6.90;;
21432;SDS011;18592;49.708;10.900;2023-06-26T11:16:35;7.32;;;6.65;;
21432;SDS011;18592;49.708;10.900;2023-06-26T11:18:52;6.85;;;6.25;;
21432;SDS011;18592;49.708;10.900;2023-06-26T11:21:08;6.82;;;6.13;;
21432;SDS011;18592;49.708;10.900;2023-06-26T11:23:11;6.13;;;5.45;;
21432;SDS011;18592;49.708;10.900;2023-06-26T11:25:15;6.40;;;5.80;;
21432;SDS011;18592;49.708;10.900;2023-06-26T11:27:46;6.45;;;5.85;;
21432;SDS011;18592;49.708;10.900;2023-06-26T11:30:02;6.60;;;6.00;;
21432;SDS011;18592;49.708;10.900;2023-06-26T11:32:03;6.47;;;5.88;;
21432;SDS011;18592;49.708;10.900;2023-06-26T11:34:09;7.05;;;6.45;;
21432;SDS011;18592;49.708;10.900;2023-06-26T11:36:11;6.93;;;6.32;;
21432;SDS011;18592;49.708;10.900;2023-06-26T11:38:27;6.70;;;6.10;;
21432;SDS011;18592;49.708;10.900;2023-06-26T11:40:36;6.57;;;5.90;;
21432;SDS011;18592;49.708;10.900;2023-06-26T11:42:47;6.55;;;5.95;;
21432;SDS011;18592;49.708;10.900;2023-06-26T11:44:48;5.82;;;5.22;;
21432;SDS011;18592;49.708;10.900;2023-06-26T11:46:53;6.20;;;5.60;;
21432;SDS011;18592;49.708;10.900;2023-06-26T11:49:04;6.47;;;5.88;;
21432;SDS011;18592;49.708;10.900;2023-06-26T11:51:07;7.35;;;6.40;;
21432;SDS011;18592;49.708;10.900;2023-06-26T11:53:18;6.25;;;5.75;;
21432;SDS011;18592;49.708;10.900;2023-06-26T11:55:40;6.07;;;5.57;;
21432;SDS011;18592;49.708;10.900;2023-06-26T11:57:56;6.28;;;5.75;;
21432;SDS011;18592;49.708;10.900;2023-06-26T11:59:58;5.78;;;5.28;;
21432;SDS011;18592;49.708;10.900;2023-06-26T12:02:14;5.97;;;5.22;;
21432;SDS011;18592;49.708;10.900;2023-06-26T12:04:17;6.15;;;5.65;;
21432;SDS011;18592;49.708;10.900;2023-06-26T12:06:33;4.95;;;4.55;;
21432;SDS011;18592;49.708;10.900;2023-06-26T12:08:40;5.82;;;5.32;;
21432;SDS011;18592;49.708;10.900;2023-06-26T12:10:41;5.65;;;5.15;;
21432;SDS011;18592;49.708;10.900;2023-06-26T12:12:57;5.55;;;5.05;;
21432;SDS011;18592;49.708;10.900;2023-06-26T12:15:15;5.78;;;5.28;;
21432;SDS011;18592;49.708;10.900;2023-06-26T12:17:18;5.88;;;5.28;;
21432;SDS011;18592;49.708;10.900;2023-06-26T12:19:31;5.75;;;5.25;;
21432;SDS011;18592;49.708;10.900;2023-06-26T12:21:47;5.75;;;5.25;;
21432;SDS011;18592;49.708;10.900;2023-06-26T12:23:48;5.78;;;5.28;;
21432;SDS011;18592;49.708;10.900;2023-06-26T12:25:49;6.10;;;5.50;;
21432;SDS011;18592;49.708;10.900;2023-06-26T12:27:52;6.10;;;5.60;;
21432;SDS011;18592;49.708;10.900;2023-06-26T12:30:07;5.55;;;5.05;;
21432;SDS011;18592;49.708;10.900;2023-06-26T12:32:14;6.10;;;5.50;;
21432;SDS011;18592;49.708;10.900;2023-06-26T12:34:30;6.95;;;6.25;;
21432;SDS011;18592;49.708;10.900;2023-06-26T12:36:39;6.75;;;6.07;;
21432;SDS011;18592;49.708;10.900;2023-06-26T12:38:49;6.72;;;5.65;;
21432;SDS011;18592;49.708;10.900;2023-06-26T12:40:52;6.47;;;5.88;;
21432;SDS011;18592;49.708;10.900;2023-06-26T12:42:57;7.20;;;6.50;;
21432;SDS011;18592;49.708;10.900;2023-06-26T12:44:59;6.97;;;6.35;;
21432;SDS011;18592;49.708;10.900;2023-06-26T12:47:25;7.72;;;7.00;;
21432;SDS011;18592;49.708;10.900;2023-06-26T12:49:34;7.20;;;6.50;;
21432;SDS011;18592;49.708;10.900;2023-06-26T12:51:37;9.52;;;6.85;;
21432;SDS011;18592;49.708;10.900;2023-06-26T12:53:44;7.82;;;6.82;;
21432;SDS011;18592;49.708;10.900;2023-06-26T12:55:48;10.98;;;7.60;;
21432;SDS011;18592;49.708;10.900;2023-06-26T12:57:50;9.23;;;7.93;;
21432;SDS011;18592;49.708;10.900;2023-06-26T12:59:59;8.60;;;7.40;;